sensor_id;sensor_type;location;lat;lon;timestamp;pressure;altitude;pressure_sealevel;temperature;humidity
69060;BME280;56135;37.534;-122.308;2022-08-19T00:00:25;101125.44;;;24.13;44.34
69060;BME280;56135;37.534;-122.308;2022-08-19T00:02:53;101121.53;;;24.05;44.53
69060;BME280;56135;37.534;-122.308;2022-08-19T00:05:21;101132.50;;;24.02;44.45
69060;BME280;56135;37.534;-122.308;2022-08-19T00:07:48;101144.94;;;23.90;45.09
69060;BME280;56135;37.534;-122.308;2022-08-19T00:10:16;101137.31;;;23.82;45.55
69060;BME280;56135;37.534;-122.308;2022-08-19T00:12:43;101140.84;;;23.68;46.03
69060;BME280;56135;37.534;-122.308;2022-08-19T00:15:10;101143.25;;;23.58;46.43
69060;BME280;56135;37.534;-122.308;2022-08-19T00:17:42;101144.41;;;23.54;47.22
69060;BME280;56135;37.534;-122.308;2022-08-19T00:20:12;101148.88;;;23.39;47.31
69060;BME280;56135;37.534;-122.308;2022-08-19T00:22:39;101149.72;;;23.25;47.66
69060;BME280;56135;37.534;-122.308;2022-08-19T00:25:07;101160.19;;;23.15;47.59
69060;BME280;56135;37.534;-122.308;2022-08-19T00:27:33;101158.97;;;23.05;48.28
69060;BME280;56135;37.534;-122.308;2022-08-19T00:30:00;101158.69;;;23.10;48.77
69060;BME280;56135;37.534;-122.308;2022-08-19T00:32:28;101155.13;;;23.09;48.33
69060;BME280;56135;37.534;-122.308;2022-08-19T00:34:54;101156.72;;;22.97;48.53
69060;BME280;56135;37.534;-122.308;2022-08-19T00:37:21;101162.91;;;22.83;48.94
69060;BME280;56135;37.534;-122.308;2022-08-19T00:39:49;101155.00;;;22.80;49.35
69060;BME280;56135;37.534;-122.308;2022-08-19T00:42:17;101165.69;;;22.66;49.25
69060;BME280;56135;37.534;-122.308;2022-08-19T00:44:44;101163.44;;;22.58;49.77
69060;BME280;56135;37.534;-122.308;2022-08-19T00:47:10;101165.09;;;22.45;50.65
69060;BME280;56135;37.534;-122.308;2022-08-19T00:49:49;101170.47;;;22.45;50.20
69060;BME280;56135;37.534;-122.308;2022-08-19T00:52:21;101153.16;;;22.33;51.12
69060;BME280;56135;37.534;-122.308;2022-08-19T00:54:49;101169.13;;;22.20;51.48
69060;BME280;56135;37.534;-122.308;2022-08-19T00:57:17;101173.06;;;21.97;52.81
69060;BME280;56135;37.534;-122.308;2022-08-19T00:59:47;101164.19;;;21.95;52.84
69060;BME280;56135;37.534;-122.308;2022-08-19T01:02:15;101155.94;;;21.82;52.79
69060;BME280;56135;37.534;-122.308;2022-08-19T01:04:42;101156.56;;;21.70;53.88
69060;BME280;56135;37.534;-122.308;2022-08-19T01:07:08;101156.19;;;21.60;54.06
69060;BME280;56135;37.534;-122.308;2022-08-19T01:09:34;101161.16;;;21.50;54.48
69060;BME280;56135;37.534;-122.308;2022-08-19T01:12:01;101157.75;;;21.46;54.46
69060;BME280;56135;37.534;-122.308;2022-08-19T01:14:28;101155.06;;;21.46;55.01
69060;BME280;56135;37.534;-122.308;2022-08-19T01:16:55;101161.09;;;21.34;55.53
69060;BME280;56135;37.534;-122.308;2022-08-19T01:19:29;101154.53;;;21.22;55.67
69060;BME280;56135;37.534;-122.308;2022-08-19T01:24:45;101160.84;;;21.04;56.98
69060;BME280;56135;37.534;-122.308;2022-08-19T01:27:12;101155.66;;;20.81;57.53
69060;BME280;56135;37.534;-122.308;2022-08-19T01:29:40;101164.88;;;20.76;57.54
69060;BME280;56135;37.534;-122.308;2022-08-19T01:32:16;101162.41;;;20.71;57.98
69060;BME280;56135;37.534;-122.308;2022-08-19T01:34:45;101165.44;;;20.63;58.46
69060;BME280;56135;37.534;-122.308;2022-08-19T01:37:14;101158.84;;;20.52;58.92
69060;BME280;56135;37.534;-122.308;2022-08-19T01:39:41;101161.84;;;20.45;58.97
69060;BME280;56135;37.534;-122.308;2022-08-19T01:42:09;101160.44;;;20.37;59.60
69060;BME280;56135;37.534;-122.308;2022-08-19T01:44:39;101161.81;;;20.26;59.75
69060;BME280;56135;37.534;-122.308;2022-08-19T01:47:07;101165.09;;;20.14;60.23
69060;BME280;56135;37.534;-122.308;2022-08-19T01:49:34;101164.84;;;19.99;60.66
69060;BME280;56135;37.534;-122.308;2022-08-19T01:52:03;101163.66;;;19.86;61.63
69060;BME280;56135;37.534;-122.308;2022-08-19T01:54:30;101164.19;;;19.74;62.29
69060;BME280;56135;37.534;-122.308;2022-08-19T01:57:03;101163.66;;;19.65;62.51
69060;BME280;56135;37.534;-122.308;2022-08-19T01:59:31;101161.41;;;19.56;62.67
69060;BME280;56135;37.534;-122.308;2022-08-19T02:01:58;101164.88;;;19.38;63.47
69060;BME280;56135;37.534;-122.308;2022-08-19T02:04:24;101162.19;;;19.38;63.43
69060;BME280;56135;37.534;-122.308;2022-08-19T02:06:51;101168.81;;;19.29;63.41
69060;BME280;56135;37.534;-122.308;2022-08-19T02:09:18;101173.69;;;19.19;63.91
69060;BME280;56135;37.534;-122.308;2022-08-19T02:11:44;101174.06;;;19.10;64.40
69060;BME280;56135;37.534;-122.308;2022-08-19T02:14:10;101173.63;;;18.98;64.81
69060;BME280;56135;37.534;-122.308;2022-08-19T02:16:36;101183.88;;;18.87;65.05
69060;BME280;56135;37.534;-122.308;2022-08-19T02:19:03;101190.47;;;18.78;65.77
69060;BME280;56135;37.534;-122.308;2022-08-19T02:21:28;101192.69;;;18.67;66.26
69060;BME280;56135;37.534;-122.308;2022-08-19T02:23:55;101188.69;;;18.55;66.53
69060;BME280;56135;37.534;-122.308;2022-08-19T02:26:22;101177.66;;;18.41;67.42
69060;BME280;56135;37.534;-122.308;2022-08-19T02:28:49;101187.00;;;18.30;67.72
69060;BME280;56135;37.534;-122.308;2022-08-19T02:31:18;101184.81;;;18.16;68.47
69060;BME280;56135;37.534;-122.308;2022-08-19T02:33:45;101195.00;;;18.07;68.76
69060;BME280;56135;37.534;-122.308;2022-08-19T02:36:13;101197.84;;;18.02;68.73
69060;BME280;56135;37.534;-122.308;2022-08-19T02:38:39;101202.78;;;17.88;69.61
69060;BME280;56135;37.534;-122.308;2022-08-19T02:41:13;101199.63;;;17.76;70.35
69060;BME280;56135;37.534;-122.308;2022-08-19T02:43:39;101193.72;;;17.66;70.66
69060;BME280;56135;37.534;-122.308;2022-08-19T02:46:24;101195.78;;;17.58;70.90
69060;BME280;56135;37.534;-122.308;2022-08-19T02:48:53;101193.50;;;17.47;71.39
69060;BME280;56135;37.534;-122.308;2022-08-19T02:51:28;101199.94;;;17.42;71.00
69060;BME280;56135;37.534;-122.308;2022-08-19T02:53:55;101205.66;;;17.31;71.72
69060;BME280;56135;37.534;-122.308;2022-08-19T02:56:22;101210.41;;;17.21;72.16
69060;BME280;56135;37.534;-122.308;2022-08-19T02:58:50;101193.66;;;17.16;72.62
69060;BME280;56135;37.534;-122.308;2022-08-19T03:01:29;101200.88;;;17.14;72.05
69060;BME280;56135;37.534;-122.308;2022-08-19T03:03:56;101207.47;;;17.02;72.13
69060;BME280;56135;37.534;-122.308;2022-08-19T03:06:23;101208.56;;;16.95;72.95
69060;BME280;56135;37.534;-122.308;2022-08-19T03:08:49;101211.50;;;16.85;74.32
69060;BME280;56135;37.534;-122.308;2022-08-19T03:11:16;101214.38;;;16.79;73.74
69060;BME280;56135;37.534;-122.308;2022-08-19T03:13:43;101219.00;;;16.74;73.71
69060;BME280;56135;37.534;-122.308;2022-08-19T03:16:10;101219.31;;;16.63;74.40
69060;BME280;56135;37.534;-122.308;2022-08-19T03:18:36;101226.63;;;16.57;74.64
69060;BME280;56135;37.534;-122.308;2022-08-19T03:21:03;101224.09;;;16.52;75.01
69060;BME280;56135;37.534;-122.308;2022-08-19T03:23:29;101222.53;;;16.45;75.26
69060;BME280;56135;37.534;-122.308;2022-08-19T03:25:55;101223.56;;;16.39;74.75
69060;BME280;56135;37.534;-122.308;2022-08-19T03:28:21;101227.25;;;16.35;74.80
69060;BME280;56135;37.534;-122.308;2022-08-19T03:31:02;101224.69;;;16.32;76.08
69060;BME280;56135;37.534;-122.308;2022-08-19T03:33:30;101230.16;;;16.27;75.50
69060;BME280;56135;37.534;-122.308;2022-08-19T03:36:09;101230.34;;;16.21;76.70
69060;BME280;56135;37.534;-122.308;2022-08-19T03:38:38;101228.69;;;16.17;76.69
69060;BME280;56135;37.534;-122.308;2022-08-19T03:41:07;101232.41;;;16.10;77.30
69060;BME280;56135;37.534;-122.308;2022-08-19T03:43:37;101233.53;;;16.03;77.03
69060;BME280;56135;37.534;-122.308;2022-08-19T03:46:15;101236.34;;;15.96;77.60
69060;BME280;56135;37.534;-122.308;2022-08-19T03:48:43;101227.56;;;15.93;78.00
69060;BME280;56135;37.534;-122.308;2022-08-19T03:51:26;101238.25;;;15.91;78.69
69060;BME280;56135;37.534;-122.308;2022-08-19T03:53:54;101238.50;;;15.83;79.08
69060;BME280;56135;37.534;-122.308;2022-08-19T03:56:21;101245.66;;;15.80;79.09
69060;BME280;56135;37.534;-122.308;2022-08-19T03:58:47;101252.84;;;15.76;79.79
69060;BME280;56135;37.534;-122.308;2022-08-19T04:01:19;101259.16;;;15.72;79.70
69060;BME280;56135;37.534;-122.308;2022-08-19T04:03:46;101255.78;;;15.65;80.41
69060;BME280;56135;37.534;-122.308;2022-08-19T04:06:14;101254.94;;;15.63;79.86
69060;BME280;56135;37.534;-122.308;2022-08-19T04:08:42;101260.25;;;15.63;79.17
69060;BME280;56135;37.534;-122.308;2022-08-19T04:11:11;101269.34;;;15.56;80.38
69060;BME280;56135;37.534;-122.308;2022-08-19T04:13:37;101264.16;;;15.50;80.43
69060;BME280;56135;37.534;-122.308;2022-08-19T04:16:05;101263.38;;;15.46;80.83
69060;BME280;56135;37.534;-122.308;2022-08-19T04:18:33;101274.09;;;15.43;81.14
69060;BME280;56135;37.534;-122.308;2022-08-19T04:20:59;101268.94;;;15.37;81.08
69060;BME280;56135;37.534;-122.308;2022-08-19T04:23:28;101274.34;;;15.32;81.08
69060;BME280;56135;37.534;-122.308;2022-08-19T04:25:54;101279.72;;;15.31;81.14
69060;BME280;56135;37.534;-122.308;2022-08-19T04:28:21;101281.59;;;15.26;81.55
69060;BME280;56135;37.534;-122.308;2022-08-19T04:30:50;101291.38;;;15.25;81.36
69060;BME280;56135;37.534;-122.308;2022-08-19T04:33:19;101286.16;;;15.21;81.51
69060;BME280;56135;37.534;-122.308;2022-08-19T04:35:47;101289.72;;;15.20;80.97
69060;BME280;56135;37.534;-122.308;2022-08-19T04:38:16;101286.41;;;15.10;81.54
69060;BME280;56135;37.534;-122.308;2022-08-19T04:40:47;101288.22;;;15.08;81.06
69060;BME280;56135;37.534;-122.308;2022-08-19T04:43:34;101285.59;;;15.06;81.23
69060;BME280;56135;37.534;-122.308;2022-08-19T04:46:08;101286.59;;;15.02;81.73
69060;BME280;56135;37.534;-122.308;2022-08-19T04:48:35;101280.53;;;14.95;83.25
69060;BME280;56135;37.534;-122.308;2022-08-19T04:51:06;101283.28;;;14.92;82.34
69060;BME280;56135;37.534;-122.308;2022-08-19T04:53:35;101279.75;;;14.90;82.55
69060;BME280;56135;37.534;-122.308;2022-08-19T04:56:05;101271.91;;;14.84;82.95
69060;BME280;56135;37.534;-122.308;2022-08-19T04:58:33;101279.88;;;14.84;82.91
69060;BME280;56135;37.534;-122.308;2022-08-19T05:00:59;101275.53;;;14.81;83.08
69060;BME280;56135;37.534;-122.308;2022-08-19T05:03:26;101271.00;;;14.85;84.87
69060;BME280;56135;37.534;-122.308;2022-08-19T05:05:52;101270.19;;;14.83;84.88
69060;BME280;56135;37.534;-122.308;2022-08-19T05:08:20;101260.50;;;14.79;84.92
69060;BME280;56135;37.534;-122.308;2022-08-19T05:10:49;101254.41;;;14.74;84.73
69060;BME280;56135;37.534;-122.308;2022-08-19T05:13:17;101260.63;;;14.73;85.38
69060;BME280;56135;37.534;-122.308;2022-08-19T05:15:45;101253.63;;;14.68;85.08
69060;BME280;56135;37.534;-122.308;2022-08-19T05:18:18;101252.78;;;14.66;85.24
69060;BME280;56135;37.534;-122.308;2022-08-19T05:21:08;101258.19;;;14.63;85.80
69060;BME280;56135;37.534;-122.308;2022-08-19T05:23:52;101253.81;;;14.59;85.61
69060;BME280;56135;37.534;-122.308;2022-08-19T05:26:18;101254.81;;;14.54;86.14
69060;BME280;56135;37.534;-122.308;2022-08-19T05:28:44;101253.09;;;14.51;85.65
69060;BME280;56135;37.534;-122.308;2022-08-19T05:31:11;101253.97;;;14.51;86.13
69060;BME280;56135;37.534;-122.308;2022-08-19T05:33:38;101250.53;;;14.46;87.00
69060;BME280;56135;37.534;-122.308;2022-08-19T05:36:06;101247.97;;;14.42;86.41
69060;BME280;56135;37.534;-122.308;2022-08-19T05:38:33;101245.31;;;14.40;86.32
69060;BME280;56135;37.534;-122.308;2022-08-19T05:41:08;101245.34;;;14.39;86.83
69060;BME280;56135;37.534;-122.308;2022-08-19T05:43:35;101240.97;;;14.38;86.91
69060;BME280;56135;37.534;-122.308;2022-08-19T05:46:03;101233.03;;;14.34;88.05
69060;BME280;56135;37.534;-122.308;2022-08-19T05:48:31;101228.63;;;14.33;87.29
69060;BME280;56135;37.534;-122.308;2022-08-19T05:50:58;101229.50;;;14.35;88.41
69060;BME280;56135;37.534;-122.308;2022-08-19T05:53:29;101222.53;;;14.30;87.71
69060;BME280;56135;37.534;-122.308;2022-08-19T05:55:55;101226.91;;;14.32;88.83
69060;BME280;56135;37.534;-122.308;2022-08-19T05:58:21;101230.53;;;14.27;88.03
69060;BME280;56135;37.534;-122.308;2022-08-19T06:00:47;101234.16;;;14.23;87.61
69060;BME280;56135;37.534;-122.308;2022-08-19T06:03:13;101230.72;;;14.19;88.06
69060;BME280;56135;37.534;-122.308;2022-08-19T06:05:40;101242.28;;;14.16;88.27
69060;BME280;56135;37.534;-122.308;2022-08-19T06:08:06;101243.19;;;14.15;88.99
69060;BME280;56135;37.534;-122.308;2022-08-19T06:10:33;101232.59;;;14.14;89.21
69060;BME280;56135;37.534;-122.308;2022-08-19T06:12:59;101234.38;;;14.12;88.46
69060;BME280;56135;37.534;-122.308;2022-08-19T06:15:46;101237.13;;;14.09;89.42
69060;BME280;56135;37.534;-122.308;2022-08-19T06:18:12;101230.94;;;14.07;89.67
69060;BME280;56135;37.534;-122.308;2022-08-19T06:20:38;101229.22;;;14.04;88.34
69060;BME280;56135;37.534;-122.308;2022-08-19T06:23:04;101230.13;;;14.05;89.44
69060;BME280;56135;37.534;-122.308;2022-08-19T06:25:30;101232.81;;;14.01;89.21
69060;BME280;56135;37.534;-122.308;2022-08-19T06:27:57;101229.19;;;14.06;90.40
69060;BME280;56135;37.534;-122.308;2022-08-19T06:30:23;101227.47;;;14.03;90.60
69060;BME280;56135;37.534;-122.308;2022-08-19T06:32:49;101228.31;;;14.05;90.81
69060;BME280;56135;37.534;-122.308;2022-08-19T06:35:15;101222.03;;;14.09;90.99
69060;BME280;56135;37.534;-122.308;2022-08-19T06:37:42;101219.50;;;14.05;90.53
69060;BME280;56135;37.534;-122.308;2022-08-19T06:40:09;101217.66;;;14.07;91.12
69060;BME280;56135;37.534;-122.308;2022-08-19T06:42:36;101210.59;;;14.06;90.45
69060;BME280;56135;37.534;-122.308;2022-08-19T06:45:06;101212.34;;;14.07;nan
69060;BME280;56135;37.534;-122.308;2022-08-19T06:47:34;101208.91;;;14.01;90.25
69060;BME280;56135;37.534;-122.308;2022-08-19T06:50:00;101209.84;;;14.00;90.66
69060;BME280;56135;37.534;-122.308;2022-08-19T06:52:32;101216.09;;;13.96;90.72
69060;BME280;56135;37.534;-122.308;2022-08-19T06:55:00;101216.16;;;13.93;90.69
69060;BME280;56135;37.534;-122.308;2022-08-19T06:57:27;101212.63;;;13.93;90.94
69060;BME280;56135;37.534;-122.308;2022-08-19T06:59:58;101219.72;;;13.92;91.25
69060;BME280;56135;37.534;-122.308;2022-08-19T07:02:26;101225.97;;;13.88;91.00
69060;BME280;56135;37.534;-122.308;2022-08-19T07:04:52;101215.31;;;13.90;92.02
69060;BME280;56135;37.534;-122.308;2022-08-19T07:07:20;101220.75;;;13.85;91.76
69060;BME280;56135;37.534;-122.308;2022-08-19T07:09:47;101216.31;;;13.84;92.12
69060;BME280;56135;37.534;-122.308;2022-08-19T07:12:14;101212.84;;;13.82;92.20
69060;BME280;56135;37.534;-122.308;2022-08-19T07:14:41;101208.47;;;13.79;91.57
69060;BME280;56135;37.534;-122.308;2022-08-19T07:17:10;101203.19;;;13.76;91.96
69060;BME280;56135;37.534;-122.308;2022-08-19T07:19:38;101206.75;;;13.75;92.16
69060;BME280;56135;37.534;-122.308;2022-08-19T07:22:06;101200.56;;;13.75;92.47
69060;BME280;56135;37.534;-122.308;2022-08-19T07:24:33;101200.59;;;13.73;92.50
69060;BME280;56135;37.534;-122.308;2022-08-19T07:27:02;101198.81;;;13.74;92.81
69060;BME280;56135;37.534;-122.308;2022-08-19T07:29:30;101202.41;;;13.73;92.75
69060;BME280;56135;37.534;-122.308;2022-08-19T07:31:59;101199.78;;;13.70;92.63
69060;BME280;56135;37.534;-122.308;2022-08-19T07:34:27;101201.56;;;13.69;93.00
69060;BME280;56135;37.534;-122.308;2022-08-19T07:36:54;101198.97;;;13.64;92.72
69060;BME280;56135;37.534;-122.308;2022-08-19T07:39:30;101195.53;;;13.61;92.26
69060;BME280;56135;37.534;-122.308;2022-08-19T07:41:58;101202.63;;;13.59;92.37
69060;BME280;56135;37.534;-122.308;2022-08-19T07:44:25;101197.34;;;13.57;92.63
69060;BME280;56135;37.534;-122.308;2022-08-19T07:46:54;101196.47;;;13.57;93.06
69060;BME280;56135;37.534;-122.308;2022-08-19T07:49:21;101201.00;;;13.50;92.63
69060;BME280;56135;37.534;-122.308;2022-08-19T07:51:51;101195.66;;;13.53;93.00
69060;BME280;56135;37.534;-122.308;2022-08-19T07:54:18;101193.97;;;13.49;92.77
69060;BME280;56135;37.534;-122.308;2022-08-19T07:56:45;101195.72;;;13.48;92.86
69060;BME280;56135;37.534;-122.308;2022-08-19T07:59:12;101199.31;;;13.46;92.75
69060;BME280;56135;37.534;-122.308;2022-08-19T08:01:39;101189.56;;;13.48;93.27
69060;BME280;56135;37.534;-122.308;2022-08-19T08:04:07;101193.06;;;13.48;93.57
69060;BME280;56135;37.534;-122.308;2022-08-19T08:06:52;101182.47;;;13.48;93.80
69060;BME280;56135;37.534;-122.308;2022-08-19T08:09:41;101186.91;;;13.48;94.15
69060;BME280;56135;37.534;-122.308;2022-08-19T08:12:14;101191.31;;;13.47;93.85
69060;BME280;56135;37.534;-122.308;2022-08-19T08:14:43;101181.59;;;13.48;93.86
69060;BME280;56135;37.534;-122.308;2022-08-19T08:17:11;101179.88;;;13.45;93.85
69060;BME280;56135;37.534;-122.308;2022-08-19T08:19:39;101178.06;;;13.46;93.91
69060;BME280;56135;37.534;-122.308;2022-08-19T08:22:07;101177.28;;;13.42;93.95
69060;BME280;56135;37.534;-122.308;2022-08-19T08:24:34;101169.38;;;13.38;93.73
69060;BME280;56135;37.534;-122.308;2022-08-19T08:27:21;101169.34;;;13.39;94.33
69060;BME280;56135;37.534;-122.308;2022-08-19T08:29:47;101168.53;;;13.35;94.50
69060;BME280;56135;37.534;-122.308;2022-08-19T08:32:14;101165.06;;;13.30;94.32
69060;BME280;56135;37.534;-122.308;2022-08-19T08:34:40;101169.50;;;13.28;94.24
69060;BME280;56135;37.534;-122.308;2022-08-19T08:37:07;101166.91;;;13.25;94.07
69060;BME280;56135;37.534;-122.308;2022-08-19T08:39:33;101161.66;;;13.22;94.41
69060;BME280;56135;37.534;-122.308;2022-08-19T08:42:12;101164.31;;;13.22;94.13
69060;BME280;56135;37.534;-122.308;2022-08-19T08:44:55;101158.19;;;13.18;94.26
69060;BME280;56135;37.534;-122.308;2022-08-19T08:47:25;101163.53;;;13.17;93.81
69060;BME280;56135;37.534;-122.308;2022-08-19T08:50:04;101164.44;;;13.16;94.47
69060;BME280;56135;37.534;-122.308;2022-08-19T08:52:43;101153.84;;;13.13;94.40
69060;BME280;56135;37.534;-122.308;2022-08-19T08:55:16;101149.50;;;13.10;94.32
69060;BME280;56135;37.534;-122.308;2022-08-19T09:00:24;101153.09;;;13.05;94.85
69060;BME280;56135;37.534;-122.308;2022-08-19T09:02:53;101151.34;;;13.05;94.95
69060;BME280;56135;37.534;-122.308;2022-08-19T09:05:20;101154.88;;;13.06;95.12
69060;BME280;56135;37.534;-122.308;2022-08-19T09:08:36;101155.72;;;13.08;95.22
69060;BME280;56135;37.534;-122.308;2022-08-19T09:10:56;101149.63;;;13.02;95.06
69060;BME280;56135;37.534;-122.308;2022-08-19T09:13:49;101143.41;;;13.02;95.50
69060;BME280;56135;37.534;-122.308;2022-08-19T09:16:21;101145.25;;;13.00;95.25
69060;BME280;56135;37.534;-122.308;2022-08-19T09:18:52;101139.91;;;13.01;95.08
69060;BME280;56135;37.534;-122.308;2022-08-19T09:21:20;101148.75;;;13.00;95.26
69060;BME280;56135;37.534;-122.308;2022-08-19T09:23:48;101143.50;;;12.97;95.19
69060;BME280;56135;37.534;-122.308;2022-08-19T09:26:18;101140.91;;;12.93;94.79
69060;BME280;56135;37.534;-122.308;2022-08-19T09:28:47;101143.53;;;12.94;95.14
69060;BME280;56135;37.534;-122.308;2022-08-19T09:31:15;101140.91;;;12.93;95.24
69060;BME280;56135;37.534;-122.308;2022-08-19T09:33:42;101136.56;;;12.89;95.11
69060;BME280;56135;37.534;-122.308;2022-08-19T09:36:11;101146.28;;;12.90;95.10
69060;BME280;56135;37.534;-122.308;2022-08-19T09:38:39;101148.09;;;12.86;94.77
69060;BME280;56135;37.534;-122.308;2022-08-19T09:41:10;101141.94;;;12.85;95.23
69060;BME280;56135;37.534;-122.308;2022-08-19T09:43:40;101141.97;;;12.84;95.34
69060;BME280;56135;37.534;-122.308;2022-08-19T09:46:07;101141.16;;;12.79;94.95
69060;BME280;56135;37.534;-122.308;2022-08-19T09:48:39;101147.31;;;12.79;94.98
69060;BME280;56135;37.534;-122.308;2022-08-19T09:51:12;101140.25;;;12.80;95.26
69060;BME280;56135;37.534;-122.308;2022-08-19T09:53:43;101135.88;;;12.76;94.84
69060;BME280;56135;37.534;-122.308;2022-08-19T09:56:10;101135.94;;;12.73;94.94
69060;BME280;56135;37.534;-122.308;2022-08-19T09:58:37;101139.53;;;12.68;95.25
69060;BME280;56135;37.534;-122.308;2022-08-19T10:01:05;101144.91;;;12.62;94.47
69060;BME280;56135;37.534;-122.308;2022-08-19T10:03:33;101141.41;;;12.62;95.06
69060;BME280;56135;37.534;-122.308;2022-08-19T10:06:03;101142.34;;;12.58;95.67
69060;BME280;56135;37.534;-122.308;2022-08-19T10:08:32;101138.81;;;12.57;95.31
69060;BME280;56135;37.534;-122.308;2022-08-19T10:10:59;101136.25;;;12.52;95.83
69060;BME280;56135;37.534;-122.308;2022-08-19T10:13:27;101138.88;;;12.54;96.02
69060;BME280;56135;37.534;-122.308;2022-08-19T10:15:56;101133.63;;;12.51;95.69
69060;BME280;56135;37.534;-122.308;2022-08-19T10:18:24;101133.56;;;12.54;96.38
69060;BME280;56135;37.534;-122.308;2022-08-19T10:20:51;101136.19;;;12.56;96.33
69060;BME280;56135;37.534;-122.308;2022-08-19T10:23:20;101140.56;;;12.58;96.56
69060;BME280;56135;37.534;-122.308;2022-08-19T10:25:47;101128.28;;;12.54;96.07
69060;BME280;56135;37.534;-122.308;2022-08-19T10:28:13;101138.78;;;12.60;96.67
69060;BME280;56135;37.534;-122.308;2022-08-19T10:30:40;101132.66;;;12.57;96.86
69060;BME280;56135;37.534;-122.308;2022-08-19T10:33:07;101134.47;;;12.55;96.74
69060;BME280;56135;37.534;-122.308;2022-08-19T10:35:33;101130.06;;;12.54;96.36
69060;BME280;56135;37.534;-122.308;2022-08-19T10:37:59;101135.38;;;12.52;96.53
69060;BME280;56135;37.534;-122.308;2022-08-19T10:40:27;101138.88;;;12.54;96.72
69060;BME280;56135;37.534;-122.308;2022-08-19T10:42:54;101130.03;;;12.55;96.81
69060;BME280;56135;37.534;-122.308;2022-08-19T10:45:21;101132.66;;;12.57;96.95
69060;BME280;56135;37.534;-122.308;2022-08-19T10:47:54;101130.09;;;12.52;96.65
69060;BME280;56135;37.534;-122.308;2022-08-19T10:50:21;101120.41;;;12.49;96.98
69060;BME280;56135;37.534;-122.308;2022-08-19T10:53:07;101125.69;;;12.48;96.56
69060;BME280;56135;37.534;-122.308;2022-08-19T10:55:34;101119.47;;;12.52;97.20
69060;BME280;56135;37.534;-122.308;2022-08-19T10:58:21;101121.25;;;12.50;97.18
69060;BME280;56135;37.534;-122.308;2022-08-19T11:00:54;101123.88;;;12.51;97.23
69060;BME280;56135;37.534;-122.308;2022-08-19T11:03:22;101122.13;;;12.50;96.74
69060;BME280;56135;37.534;-122.308;2022-08-19T11:06:04;101123.03;;;12.51;97.15
69060;BME280;56135;37.534;-122.308;2022-08-19T11:08:30;101122.22;;;12.46;96.95
69060;BME280;56135;37.534;-122.308;2022-08-19T11:11:00;101115.16;;;12.45;97.41
69060;BME280;56135;37.534;-122.308;2022-08-19T11:13:38;101111.66;;;12.44;97.36
69060;BME280;56135;37.534;-122.308;2022-08-19T11:16:12;101116.03;;;12.44;97.48
69060;BME280;56135;37.534;-122.308;2022-08-19T11:18:45;101114.31;;;12.43;97.66
69060;BME280;56135;37.534;-122.308;2022-08-19T11:21:15;101119.63;;;12.40;96.91
69060;BME280;56135;37.534;-122.308;2022-08-19T11:23:47;101112.59;;;12.39;97.16
69060;BME280;56135;37.534;-122.308;2022-08-19T11:26:16;101110.84;;;12.38;97.62
69060;BME280;56135;37.534;-122.308;2022-08-19T11:28:42;101109.09;;;12.37;98.10
69060;BME280;56135;37.534;-122.308;2022-08-19T11:31:15;101108.22;;;12.34;98.27
69060;BME280;56135;37.534;-122.308;2022-08-19T11:33:41;101107.34;;;12.35;98.22
69060;BME280;56135;37.534;-122.308;2022-08-19T11:36:08;101105.56;;;12.34;98.43
69060;BME280;56135;37.534;-122.308;2022-08-19T11:38:36;101105.53;;;12.39;98.92
69060;BME280;56135;37.534;-122.308;2022-08-19T11:41:05;101108.13;;;12.42;99.08
69060;BME280;56135;37.534;-122.308;2022-08-19T11:43:32;101103.81;;;12.37;98.76
69060;BME280;56135;37.534;-122.308;2022-08-19T11:45:58;101105.56;;;12.38;98.77
69060;BME280;56135;37.534;-122.308;2022-08-19T11:48:25;101103.78;;;12.38;99.06
69060;BME280;56135;37.534;-122.308;2022-08-19T11:50:52;101098.44;;;12.40;99.01
69060;BME280;56135;37.534;-122.308;2022-08-19T11:53:21;101093.19;;;12.37;98.90
69060;BME280;56135;37.534;-122.308;2022-08-19T11:55:47;101099.34;;;12.39;98.85
69060;BME280;56135;37.534;-122.308;2022-08-19T11:58:16;101094.13;;;12.34;98.76
69060;BME280;56135;37.534;-122.308;2022-08-19T12:00:43;101090.59;;;12.33;98.79
69060;BME280;56135;37.534;-122.308;2022-08-19T12:03:12;101087.97;;;12.30;98.61
69060;BME280;56135;37.534;-122.308;2022-08-19T12:05:40;101093.28;;;12.30;98.78
69060;BME280;56135;37.534;-122.308;2022-08-19T12:08:07;101091.56;;;12.28;98.73
69060;BME280;56135;37.534;-122.308;2022-08-19T12:10:34;101097.75;;;12.28;99.23
69060;BME280;56135;37.534;-122.308;2022-08-19T12:13:01;101095.09;;;12.28;99.07
69060;BME280;56135;37.534;-122.308;2022-08-19T12:15:28;101101.22;;;12.30;98.88
69060;BME280;56135;37.534;-122.308;2022-08-19T12:17:55;101101.28;;;12.27;99.07
69060;BME280;56135;37.534;-122.308;2022-08-19T12:20:23;101098.59;;;12.29;99.47
69060;BME280;56135;37.534;-122.308;2022-08-19T12:22:50;101104.78;;;12.28;99.59
69060;BME280;56135;37.534;-122.308;2022-08-19T12:25:16;101103.03;;;12.28;99.07
69060;BME280;56135;37.534;-122.308;2022-08-19T12:27:43;101102.16;;;12.26;99.06
69060;BME280;56135;37.534;-122.308;2022-08-19T12:30:11;101097.78;;;12.27;99.66
69060;BME280;56135;37.534;-122.308;2022-08-19T12:32:38;101103.91;;;12.29;99.54
69060;BME280;56135;37.534;-122.308;2022-08-19T12:35:06;101102.13;;;12.29;99.86